Terminal Aerodrome Forecast
Issued by NWS Flagstaff, AZ

Home | Current Version | Previous Version | Text Only | Print | Product List | Glossary On
Versions: 1 2 3 4 5 6 7 8 9 10 11 12 13 14 15 16 17 18 19 20
388
FTUS45 KFGZ 280520
TAFINW
TAF
KINW 280520Z 2806/2906 VRB06KT P6SM FEW120
     FM282200 23008G14KT P6SM BKN110
     FM290300 VRB06KT P6SM FEW110=

USA.gov is the U.S. government's official web portal to all federal, state and local government web resources and services.